sensor_id;sensor_type;location;lat;lon;timestamp;pressure;altitude;pressure_sealevel;temperature;humidity
66945;BME280;53853;51.982;5.928;2022-11-20T00:02:05;101281.19;;;0.27;66.20
66945;BME280;53853;51.982;5.928;2022-11-20T00:04:35;101286.50;;;0.26;67.55
66945;BME280;53853;51.982;5.928;2022-11-20T00:07:04;101282.09;;;0.26;67.27
66945;BME280;53853;51.982;5.928;2022-11-20T00:09:37;101279.41;;;0.28;67.19
66945;BME280;53853;51.982;5.928;2022-11-20T00:12:07;101275.00;;;0.28;66.62
66945;BME280;53853;51.982;5.928;2022-11-20T00:14:37;101275.13;;;0.25;66.88
66945;BME280;53853;51.982;5.928;2022-11-20T00:17:08;101273.47;;;0.24;67.12
66945;BME280;53853;51.982;5.928;2022-11-20T00:19:37;101270.09;;;0.21;66.91
66945;BME280;53853;51.982;5.928;2022-11-20T00:22:07;101258.94;;;0.17;66.74
66945;BME280;53853;51.982;5.928;2022-11-20T00:24:40;101261.75;;;0.12;67.18
66945;BME280;53853;51.982;5.928;2022-11-20T00:27:09;101253.22;;;0.09;67.99
66945;BME280;53853;51.982;5.928;2022-11-20T00:29:40;101247.91;;;0.10;67.95
66945;BME280;53853;51.982;5.928;2022-11-20T00:32:09;101243.63;;;0.08;67.70
66945;BME280;53853;51.982;5.928;2022-11-20T00:34:39;101240.31;;;0.04;68.40
66945;BME280;53853;51.982;5.928;2022-11-20T00:37:09;101241.47;;;-0.02;68.77
66945;BME280;53853;51.982;5.928;2022-11-20T00:39:42;101247.56;;;-0.01;68.43
66945;BME280;53853;51.982;5.928;2022-11-20T00:42:11;101252.94;;;-0.04;68.36
66945;BME280;53853;51.982;5.928;2022-11-20T00:44:41;101252.09;;;-0.05;68.51
66945;BME280;53853;51.982;5.928;2022-11-20T00:47:11;101251.09;;;-0.02;68.13
66945;BME280;53853;51.982;5.928;2022-11-20T00:49:41;101260.59;;;0.01;67.48
66945;BME280;53853;51.982;5.928;2022-11-20T00:52:11;101256.31;;;-0.02;68.01
66945;BME280;53853;51.982;5.928;2022-11-20T00:54:43;101250.25;;;-0.03;68.00
66945;BME280;53853;51.982;5.928;2022-11-20T00:57:13;101253.00;;;-0.06;68.94
66945;BME280;53853;51.982;5.928;2022-11-20T00:59:43;101247.00;;;-0.08;69.10
66945;BME280;53853;51.982;5.928;2022-11-20T01:02:13;101240.19;;;-0.12;68.29
66945;BME280;53853;51.982;5.928;2022-11-20T01:04:43;101250.72;;;-0.13;68.37
66945;BME280;53853;51.982;5.928;2022-11-20T01:07:13;101248.25;;;-0.16;67.96
66945;BME280;53853;51.982;5.928;2022-11-20T01:09:45;101252.66;;;-0.17;68.32
66945;BME280;53853;51.982;5.928;2022-11-20T01:12:15;101252.50;;;-0.14;68.15
66945;BME280;53853;51.982;5.928;2022-11-20T01:14:45;101245.50;;;-0.13;68.17
66945;BME280;53853;51.982;5.928;2022-11-20T01:17:16;101234.94;;;-0.12;68.14
66945;BME280;53853;51.982;5.928;2022-11-20T01:19:49;101236.53;;;-0.08;67.99
66945;BME280;53853;51.982;5.928;2022-11-20T01:22:19;101234.94;;;-0.12;67.98
66945;BME280;53853;51.982;5.928;2022-11-20T01:24:51;101233.44;;;-0.17;68.25
66945;BME280;53853;51.982;5.928;2022-11-20T01:27:21;101231.06;;;-0.22;68.73
66945;BME280;53853;51.982;5.928;2022-11-20T01:29:51;101224.13;;;-0.23;69.01
66945;BME280;53853;51.982;5.928;2022-11-20T01:32:21;101225.84;;;-0.22;68.80
66945;BME280;53853;51.982;5.928;2022-11-20T01:34:50;101225.97;;;-0.25;69.27
66945;BME280;53853;51.982;5.928;2022-11-20T01:37:20;101222.56;;;-0.27;68.67
66945;BME280;53853;51.982;5.928;2022-11-20T01:39:53;101228.66;;;-0.27;68.18
66945;BME280;53853;51.982;5.928;2022-11-20T01:42:22;101218.88;;;-0.23;68.02
66945;BME280;53853;51.982;5.928;2022-11-20T01:48:05;101209.47;;;-0.27;67.73
66945;BME280;53853;51.982;5.928;2022-11-20T01:50:35;101218.19;;;-0.27;68.08
66945;BME280;53853;51.982;5.928;2022-11-20T01:53:07;101214.56;;;-0.24;68.36
66945;BME280;53853;51.982;5.928;2022-11-20T01:55:44;101220.44;;;-0.19;68.46
66945;BME280;53853;51.982;5.928;2022-11-20T01:58:16;101208.81;;;-0.13;67.93
66945;BME280;53853;51.982;5.928;2022-11-20T02:00:46;101213.38;;;-0.17;68.27
66945;BME280;53853;51.982;5.928;2022-11-20T02:03:17;101210.13;;;-0.22;67.99
66945;BME280;53853;51.982;5.928;2022-11-20T02:05:51;101208.47;;;-0.25;68.54
66945;BME280;53853;51.982;5.928;2022-11-20T02:08:25;101209.31;;;-0.24;69.14
66945;BME280;53853;51.982;5.928;2022-11-20T02:10:57;101217.03;;;-0.21;68.57
66945;BME280;53853;51.982;5.928;2022-11-20T02:13:27;101211.59;;;-0.16;68.03
66945;BME280;53853;51.982;5.928;2022-11-20T02:16:15;101216.13;;;-0.20;68.22
66945;BME280;53853;51.982;5.928;2022-11-20T02:18:46;101206.75;;;-0.26;68.28
66945;BME280;53853;51.982;5.928;2022-11-20T02:21:25;101209.47;;;-0.27;69.12
66945;BME280;53853;51.982;5.928;2022-11-20T02:24:07;101212.00;;;-0.26;69.04
66945;BME280;53853;51.982;5.928;2022-11-20T02:26:43;101212.75;;;-0.22;68.95
66945;BME280;53853;51.982;5.928;2022-11-20T02:29:15;101207.50;;;-0.22;68.96
66945;BME280;53853;51.982;5.928;2022-11-20T02:31:46;101208.19;;;-0.19;68.76
66945;BME280;53853;51.982;5.928;2022-11-20T02:34:16;101201.09;;;-0.16;68.08
66945;BME280;53853;51.982;5.928;2022-11-20T02:36:47;101205.44;;;-0.15;68.26
66945;BME280;53853;51.982;5.928;2022-11-20T02:39:24;101200.34;;;-0.19;68.12
66945;BME280;53853;51.982;5.928;2022-11-20T02:41:56;101203.25;;;-0.25;68.34
66945;BME280;53853;51.982;5.928;2022-11-20T02:44:26;101208.69;;;-0.29;68.17
66945;BME280;53853;51.982;5.928;2022-11-20T02:46:57;101202.81;;;-0.34;68.40
66945;BME280;53853;51.982;5.928;2022-11-20T02:49:27;101198.50;;;-0.35;68.74
66945;BME280;53853;51.982;5.928;2022-11-20T02:51:57;101201.19;;;-0.37;68.60
66945;BME280;53853;51.982;5.928;2022-11-20T02:54:30;101187.47;;;-0.42;68.65
66945;BME280;53853;51.982;5.928;2022-11-20T02:56:59;101192.00;;;-0.46;68.32
66945;BME280;53853;51.982;5.928;2022-11-20T02:59:29;101194.03;;;-0.52;68.51
66945;BME280;53853;51.982;5.928;2022-11-20T03:01:59;101194.16;;;-0.56;69.31
66945;BME280;53853;51.982;5.928;2022-11-20T03:04:29;101193.31;;;-0.56;68.87
66945;BME280;53853;51.982;5.928;2022-11-20T03:06:59;101195.09;;;-0.57;69.08
66945;BME280;53853;51.982;5.928;2022-11-20T03:09:31;101189.03;;;-0.57;69.01
66945;BME280;53853;51.982;5.928;2022-11-20T03:12:01;101192.63;;;-0.60;69.20
66945;BME280;53853;51.982;5.928;2022-11-20T03:14:31;101189.22;;;-0.62;69.38
66945;BME280;53853;51.982;5.928;2022-11-20T03:17:01;101184.06;;;-0.63;69.02
66945;BME280;53853;51.982;5.928;2022-11-20T03:19:31;101179.88;;;-0.67;69.31
66945;BME280;53853;51.982;5.928;2022-11-20T03:22:01;101169.47;;;-0.69;69.67
66945;BME280;53853;51.982;5.928;2022-11-20T03:24:33;101163.31;;;-0.68;69.71
66945;BME280;53853;51.982;5.928;2022-11-20T03:27:03;101164.22;;;-0.69;69.83
66945;BME280;53853;51.982;5.928;2022-11-20T03:29:34;101170.31;;;-0.68;70.45
66945;BME280;53853;51.982;5.928;2022-11-20T03:32:04;101161.63;;;-0.69;69.95
66945;BME280;53853;51.982;5.928;2022-11-20T03:34:34;101162.59;;;-0.71;69.72
66945;BME280;53853;51.982;5.928;2022-11-20T03:37:04;101154.81;;;-0.73;69.68
66945;BME280;53853;51.982;5.928;2022-11-20T03:39:36;101161.06;;;-0.76;70.23
66945;BME280;53853;51.982;5.928;2022-11-20T03:42:07;101160.22;;;-0.76;70.41
66945;BME280;53853;51.982;5.928;2022-11-20T03:44:57;101160.22;;;-0.76;69.96
66945;BME280;53853;51.982;5.928;2022-11-20T03:47:27;101168.84;;;-0.74;70.34
66945;BME280;53853;51.982;5.928;2022-11-20T03:49:57;101162.72;;;-0.75;70.48
66945;BME280;53853;51.982;5.928;2022-11-20T03:52:27;101164.44;;;-0.74;70.95
66945;BME280;53853;51.982;5.928;2022-11-20T03:54:59;101161.69;;;-0.70;71.19
66945;BME280;53853;51.982;5.928;2022-11-20T03:57:29;101157.34;;;-0.71;70.05
66945;BME280;53853;51.982;5.928;2022-11-20T03:59:59;101160.03;;;-0.73;70.17
66945;BME280;53853;51.982;5.928;2022-11-20T04:02:31;101157.66;;;-0.78;70.69
66945;BME280;53853;51.982;5.928;2022-11-20T04:05:01;101158.56;;;-0.79;70.88
66945;BME280;53853;51.982;5.928;2022-11-20T04:07:31;101162.97;;;-0.79;70.33
66945;BME280;53853;51.982;5.928;2022-11-20T04:10:06;101161.38;;;-0.83;70.36
66945;BME280;53853;51.982;5.928;2022-11-20T04:12:36;101156.34;;;-0.88;70.66
66945;BME280;53853;51.982;5.928;2022-11-20T04:15:07;101152.97;;;-0.90;71.04
66945;BME280;53853;51.982;5.928;2022-11-20T04:17:36;101148.56;;;-0.89;71.24
66945;BME280;53853;51.982;5.928;2022-11-20T04:20:07;101156.56;;;-0.93;71.20
66945;BME280;53853;51.982;5.928;2022-11-20T04:22:38;101144.50;;;-0.95;71.22
66945;BME280;53853;51.982;5.928;2022-11-20T04:25:11;101145.31;;;-0.95;70.76
66945;BME280;53853;51.982;5.928;2022-11-20T04:27:40;101149.72;;;-0.95;70.52
66945;BME280;53853;51.982;5.928;2022-11-20T04:30:11;101150.75;;;-0.99;70.59
66945;BME280;53853;51.982;5.928;2022-11-20T04:32:41;101150.69;;;-0.98;70.81
66945;BME280;53853;51.982;5.928;2022-11-20T04:35:11;101146.16;;;-0.94;71.42
66945;BME280;53853;51.982;5.928;2022-11-20T04:37:41;101146.16;;;-0.94;70.65
66945;BME280;53853;51.982;5.928;2022-11-20T04:40:16;101146.22;;;-0.96;70.32
66945;BME280;53853;51.982;5.928;2022-11-20T04:42:46;101141.06;;;-0.97;71.16
66945;BME280;53853;51.982;5.928;2022-11-20T04:45:16;101143.69;;;-0.97;71.37
66945;BME280;53853;51.982;5.928;2022-11-20T04:47:45;101144.50;;;-0.95;70.69
66945;BME280;53853;51.982;5.928;2022-11-20T04:50:16;101141.06;;;-0.97;70.91
66945;BME280;53853;51.982;5.928;2022-11-20T04:52:45;101143.75;;;-0.99;70.97
66945;BME280;53853;51.982;5.928;2022-11-20T04:55:18;101147.31;;;-1.00;71.22
66945;BME280;53853;51.982;5.928;2022-11-20T04:57:50;101140.28;;;-0.99;71.30
66945;BME280;53853;51.982;5.928;2022-11-20T05:00:20;101137.81;;;-1.02;71.06
66945;BME280;53853;51.982;5.928;2022-11-20T05:02:50;101138.78;;;-1.05;71.07
66945;BME280;53853;51.982;5.928;2022-11-20T05:05:20;101127.50;;;-1.05;71.41
66945;BME280;53853;51.982;5.928;2022-11-20T05:07:50;101130.16;;;-1.07;71.19
66945;BME280;53853;51.982;5.928;2022-11-20T05:10:22;101125.00;;;-1.08;71.13
66945;BME280;53853;51.982;5.928;2022-11-20T05:12:52;101116.31;;;-1.09;71.08
66945;BME280;53853;51.982;5.928;2022-11-20T05:15:22;101123.44;;;-1.13;70.90
66945;BME280;53853;51.982;5.928;2022-11-20T05:17:53;101124.44;;;-1.15;70.88
66945;BME280;53853;51.982;5.928;2022-11-20T05:20:22;101120.09;;;-1.16;70.37
66945;BME280;53853;51.982;5.928;2022-11-20T05:22:52;101116.00;;;-1.22;70.78
66945;BME280;53853;51.982;5.928;2022-11-20T05:25:28;101109.16;;;-1.24;70.79
66945;BME280;53853;51.982;5.928;2022-11-20T05:27:58;101105.81;;;-1.28;70.78
66945;BME280;53853;51.982;5.928;2022-11-20T05:30:28;101107.63;;;-1.30;71.03
66945;BME280;53853;51.982;5.928;2022-11-20T05:32:57;101107.63;;;-1.30;71.74
66945;BME280;53853;51.982;5.928;2022-11-20T05:35:27;101107.63;;;-1.30;71.41
66945;BME280;53853;51.982;5.928;2022-11-20T05:37:57;101114.69;;;-1.32;70.70
66945;BME280;53853;51.982;5.928;2022-11-20T05:40:30;101118.19;;;-1.32;71.45
66945;BME280;53853;51.982;5.928;2022-11-20T05:43:00;101118.19;;;-1.32;71.75
66945;BME280;53853;51.982;5.928;2022-11-20T05:45:30;101107.78;;;-1.33;71.63
66945;BME280;53853;51.982;5.928;2022-11-20T05:48:00;101101.75;;;-1.35;71.50
66945;BME280;53853;51.982;5.928;2022-11-20T05:50:30;101098.44;;;-1.39;71.92
66945;BME280;53853;51.982;5.928;2022-11-20T05:53:00;101111.63;;;-1.42;71.89
66945;BME280;53853;51.982;5.928;2022-11-20T05:55:33;101111.63;;;-1.42;71.89
66945;BME280;53853;51.982;5.928;2022-11-20T05:58:03;101114.25;;;-1.42;71.53
66945;BME280;53853;51.982;5.928;2022-11-20T06:00:32;101110.88;;;-1.44;71.67
66945;BME280;53853;51.982;5.928;2022-11-20T06:03:02;101100.41;;;-1.44;71.84
66945;BME280;53853;51.982;5.928;2022-11-20T06:05:34;101109.94;;;-1.43;71.13
66945;BME280;53853;51.982;5.928;2022-11-20T06:08:04;101101.50;;;-1.50;71.12
66945;BME280;53853;51.982;5.928;2022-11-20T06:10:36;101111.13;;;-1.50;71.11
66945;BME280;53853;51.982;5.928;2022-11-20T06:13:06;101112.97;;;-1.52;71.69
66945;BME280;53853;51.982;5.928;2022-11-20T06:15:36;101120.59;;;-1.48;71.36
66945;BME280;53853;51.982;5.928;2022-11-20T06:18:06;101125.81;;;-1.48;71.13
66945;BME280;53853;51.982;5.928;2022-11-20T06:20:36;101118.03;;;-1.49;71.42
66945;BME280;53853;51.982;5.928;2022-11-20T06:23:05;101126.09;;;-1.54;71.21
66945;BME280;53853;51.982;5.928;2022-11-20T06:25:41;101132.09;;;-1.52;71.53
66945;BME280;53853;51.982;5.928;2022-11-20T06:28:11;101133.94;;;-1.54;71.70
66945;BME280;53853;51.982;5.928;2022-11-20T06:30:45;101131.38;;;-1.55;72.03
66945;BME280;53853;51.982;5.928;2022-11-20T06:33:15;101140.19;;;-1.58;72.45
66945;BME280;53853;51.982;5.928;2022-11-20T06:35:44;101128.78;;;-1.55;72.14
66945;BME280;53853;51.982;5.928;2022-11-20T06:38:14;101138.22;;;-1.53;71.92
66945;BME280;53853;51.982;5.928;2022-11-20T06:40:47;101133.94;;;-1.54;71.31
66945;BME280;53853;51.982;5.928;2022-11-20T06:43:17;101140.97;;;-1.56;71.74
66945;BME280;53853;51.982;5.928;2022-11-20T06:45:51;101134.91;;;-1.56;71.44
66945;BME280;53853;51.982;5.928;2022-11-20T06:48:20;101140.97;;;-1.56;71.36
66945;BME280;53853;51.982;5.928;2022-11-20T06:50:50;101147.06;;;-1.55;71.29
66945;BME280;53853;51.982;5.928;2022-11-20T06:53:21;101143.59;;;-1.56;71.50
66945;BME280;53853;51.982;5.928;2022-11-20T06:55:56;101147.13;;;-1.57;71.73
66945;BME280;53853;51.982;5.928;2022-11-20T06:58:28;101144.47;;;-1.55;71.63
66945;BME280;53853;51.982;5.928;2022-11-20T07:00:59;101146.94;;;-1.52;71.09
66945;BME280;53853;51.982;5.928;2022-11-20T07:03:29;101139.16;;;-1.54;71.01
66945;BME280;53853;51.982;5.928;2022-11-20T07:05:59;101137.38;;;-1.53;71.81
66945;BME280;53853;51.982;5.928;2022-11-20T07:08:30;101135.50;;;-1.50;71.38
66945;BME280;53853;51.982;5.928;2022-11-20T07:11:04;101136.56;;;-1.54;71.16
66945;BME280;53853;51.982;5.928;2022-11-20T07:13:34;101142.75;;;-1.56;71.50
66945;BME280;53853;51.982;5.928;2022-11-20T07:16:07;101138.34;;;-1.56;71.97
66945;BME280;53853;51.982;5.928;2022-11-20T07:18:37;101145.94;;;-1.50;72.32
66945;BME280;53853;51.982;5.928;2022-11-20T07:21:08;101141.38;;;-1.44;71.81
66945;BME280;53853;51.982;5.928;2022-11-20T07:23:39;101131.66;;;-1.41;71.39
66945;BME280;53853;51.982;5.928;2022-11-20T07:26:11;101134.06;;;-1.36;71.20
66945;BME280;53853;51.982;5.928;2022-11-20T07:28:44;101127.84;;;-1.34;71.20
66945;BME280;53853;51.982;5.928;2022-11-20T07:31:14;101123.53;;;-1.35;71.44
66945;BME280;53853;51.982;5.928;2022-11-20T07:33:44;101129.41;;;-1.30;71.55
66945;BME280;53853;51.982;5.928;2022-11-20T07:36:14;101122.22;;;-1.24;71.65
66945;BME280;53853;51.982;5.928;2022-11-20T07:38:44;101122.91;;;-1.21;71.10
66945;BME280;53853;51.982;5.928;2022-11-20T07:41:16;101125.47;;;-1.19;71.02
66945;BME280;53853;51.982;5.928;2022-11-20T07:43:46;101123.53;;;-1.14;70.93
66945;BME280;53853;51.982;5.928;2022-11-20T07:46:16;101118.88;;;-1.07;70.51
66945;BME280;53853;51.982;5.928;2022-11-20T07:48:46;101110.94;;;-1.06;70.67
66945;BME280;53853;51.982;5.928;2022-11-20T07:51:15;101103.88;;;-1.04;71.09
66945;BME280;53853;51.982;5.928;2022-11-20T07:53:45;101098.50;;;-1.01;71.42
66945;BME280;53853;51.982;5.928;2022-11-20T07:56:18;101095.69;;;-0.96;71.67
66945;BME280;53853;51.982;5.928;2022-11-20T07:58:48;101109.41;;;-0.91;71.71
66945;BME280;53853;51.982;5.928;2022-11-20T08:01:17;101109.97;;;-0.84;71.93
66945;BME280;53853;51.982;5.928;2022-11-20T08:03:47;101116.63;;;-0.77;71.94
66945;BME280;53853;51.982;5.928;2022-11-20T08:06:17;101106.88;;;-0.74;71.74
66945;BME280;53853;51.982;5.928;2022-11-20T08:08:48;101113.59;;;-0.68;71.52
66945;BME280;53853;51.982;5.928;2022-11-20T08:11:20;101113.38;;;-0.63;71.57
66945;BME280;53853;51.982;5.928;2022-11-20T08:14:02;101118.47;;;-0.60;71.33
66945;BME280;53853;51.982;5.928;2022-11-20T08:16:42;101116.44;;;-0.53;71.64
66945;BME280;53853;51.982;5.928;2022-11-20T08:19:12;101128.50;;;-0.51;71.58
66945;BME280;53853;51.982;5.928;2022-11-20T08:21:42;101133.44;;;-0.45;71.27
66945;BME280;53853;51.982;5.928;2022-11-20T08:24:12;101122.84;;;-0.42;71.46
66945;BME280;53853;51.982;5.928;2022-11-20T08:26:45;101126.06;;;-0.37;71.18
66945;BME280;53853;51.982;5.928;2022-11-20T08:29:14;101115.38;;;-0.32;71.11
66945;BME280;53853;51.982;5.928;2022-11-20T08:31:44;101113.50;;;-0.28;71.30
66945;BME280;53853;51.982;5.928;2022-11-20T08:34:14;101115.81;;;-0.22;71.25
66945;BME280;53853;51.982;5.928;2022-11-20T08:36:44;101112.97;;;-0.17;70.53
66945;BME280;53853;51.982;5.928;2022-11-20T08:39:15;101107.34;;;-0.10;70.58
66945;BME280;53853;51.982;5.928;2022-11-20T08:41:49;101110.63;;;-0.05;70.61
66945;BME280;53853;51.982;5.928;2022-11-20T08:44:27;101108.63;;;0.01;71.15
66945;BME280;53853;51.982;5.928;2022-11-20T08:46:57;101105.69;;;0.07;70.61
66945;BME280;53853;51.982;5.928;2022-11-20T08:49:27;101104.69;;;0.09;70.72
66945;BME280;53853;51.982;5.928;2022-11-20T08:51:57;101106.16;;;0.15;70.68
66945;BME280;53853;51.982;5.928;2022-11-20T08:54:27;101099.81;;;0.19;70.72
66945;BME280;53853;51.982;5.928;2022-11-20T08:57:03;101095.16;;;0.26;70.61
66945;BME280;53853;51.982;5.928;2022-11-20T08:59:33;101094.44;;;0.40;70.47
66945;BME280;53853;51.982;5.928;2022-11-20T09:02:03;101089.50;;;0.51;70.31
66945;BME280;53853;51.982;5.928;2022-11-20T09:04:33;101091.03;;;0.55;70.15
66945;BME280;53853;51.982;5.928;2022-11-20T09:07:03;101091.47;;;0.63;70.27
66945;BME280;53853;51.982;5.928;2022-11-20T09:09:32;101077.66;;;0.77;70.02
66945;BME280;53853;51.982;5.928;2022-11-20T09:12:05;101085.13;;;0.85;70.02
66945;BME280;53853;51.982;5.928;2022-11-20T09:14:35;101074.13;;;0.94;70.16
66945;BME280;53853;51.982;5.928;2022-11-20T09:17:05;101065.69;;;1.05;69.88
66945;BME280;53853;51.982;5.928;2022-11-20T09:19:35;101066.78;;;1.17;69.53
66945;BME280;53853;51.982;5.928;2022-11-20T09:22:05;101069.00;;;1.24;69.29
66945;BME280;53853;51.982;5.928;2022-11-20T09:24:35;101070.63;;;1.27;69.28
66945;BME280;53853;51.982;5.928;2022-11-20T09:27:07;101069.16;;;1.37;69.36
66945;BME280;53853;51.982;5.928;2022-11-20T09:29:37;101065.03;;;1.49;69.38
66945;BME280;53853;51.982;5.928;2022-11-20T09:32:07;101061.28;;;1.53;69.19
66945;BME280;53853;51.982;5.928;2022-11-20T09:34:37;101057.56;;;1.57;69.21
66945;BME280;53853;51.982;5.928;2022-11-20T09:37:07;101059.75;;;1.65;69.24
66945;BME280;53853;51.982;5.928;2022-11-20T09:39:37;101061.00;;;1.74;69.29
66945;BME280;53853;51.982;5.928;2022-11-20T09:42:22;101052.69;;;1.81;69.22
66945;BME280;53853;51.982;5.928;2022-11-20T09:45:10;101056.47;;;1.92;69.01
66945;BME280;53853;51.982;5.928;2022-11-20T09:47:58;101053.31;;;2.01;68.78
66945;BME280;53853;51.982;5.928;2022-11-20T09:50:34;101052.84;;;2.09;68.52
66945;BME280;53853;51.982;5.928;2022-11-20T09:53:12;101056.84;;;2.16;68.66
66945;BME280;53853;51.982;5.928;2022-11-20T09:55:44;101047.53;;;2.25;68.52
66945;BME280;53853;51.982;5.928;2022-11-20T09:58:25;101053.47;;;2.28;68.62
66945;BME280;53853;51.982;5.928;2022-11-20T10:01:00;101057.34;;;2.37;68.39
66945;BME280;53853;51.982;5.928;2022-11-20T10:03:41;101059.50;;;2.45;68.14
66945;BME280;53853;51.982;5.928;2022-11-20T10:06:17;101049.84;;;2.45;68.11
66945;BME280;53853;51.982;5.928;2022-11-20T10:08:51;101038.75;;;2.54;67.95
66945;BME280;53853;51.982;5.928;2022-11-20T10:11:33;101025.88;;;2.64;67.71
66945;BME280;53853;51.982;5.928;2022-11-20T10:14:22;101032.19;;;2.76;67.57
66945;BME280;53853;51.982;5.928;2022-11-20T10:17:03;101022.69;;;2.88;67.40
66945;BME280;53853;51.982;5.928;2022-11-20T10:19:49;101025.56;;;2.98;67.33
66945;BME280;53853;51.982;5.928;2022-11-20T10:22:33;101011.28;;;3.02;66.65
66945;BME280;53853;51.982;5.928;2022-11-20T10:25:13;101003.00;;;3.08;66.80
66945;BME280;53853;51.982;5.928;2022-11-20T10:27:55;101012.09;;;3.17;66.98
66945;BME280;53853;51.982;5.928;2022-11-20T10:30:29;101009.91;;;3.23;67.01
66945;BME280;53853;51.982;5.928;2022-11-20T10:33:05;100986.78;;;3.29;66.99
66945;BME280;53853;51.982;5.928;2022-11-20T10:35:41;100982.16;;;3.32;67.02
66945;BME280;53853;51.982;5.928;2022-11-20T10:38:17;100984.97;;;3.29;66.92
66945;BME280;53853;51.982;5.928;2022-11-20T10:40:52;100985.63;;;3.33;67.01
66945;BME280;53853;51.982;5.928;2022-11-20T10:43:44;100988.59;;;3.41;66.80
66945;BME280;53853;51.982;5.928;2022-11-20T10:46:24;100991.41;;;3.52;66.67
66945;BME280;53853;51.982;5.928;2022-11-20T10:48:55;100979.88;;;3.53;66.70
66945;BME280;53853;51.982;5.928;2022-11-20T10:51:35;100978.56;;;3.60;66.66
66945;BME280;53853;51.982;5.928;2022-11-20T10:54:17;100977.19;;;3.68;66.95
66945;BME280;53853;51.982;5.928;2022-11-20T10:56:51;100962.47;;;3.78;67.04
66945;BME280;53853;51.982;5.928;2022-11-20T10:59:47;100956.22;;;3.79;67.04
66945;BME280;53853;51.982;5.928;2022-11-20T11:02:29;100959.31;;;3.86;67.03
66945;BME280;53853;51.982;5.928;2022-11-20T11:05:17;100968.78;;;3.88;67.21
66945;BME280;53853;51.982;5.928;2022-11-20T11:07:52;100960.97;;;3.87;67.83
66945;BME280;53853;51.982;5.928;2022-11-20T11:10:28;100950.34;;;3.88;67.82
66945;BME280;53853;51.982;5.928;2022-11-20T11:13:02;100948.56;;;3.89;68.05
66945;BME280;53853;51.982;5.928;2022-11-20T11:15:39;100946.03;;;3.87;68.00
66945;BME280;53853;51.982;5.928;2022-11-20T11:18:22;100933.38;;;3.92;68.21
66945;BME280;53853;51.982;5.928;2022-11-20T11:20:53;100929.81;;;3.93;68.32
66945;BME280;53853;51.982;5.928;2022-11-20T11:23:31;100929.44;;;3.98;68.29
66945;BME280;53853;51.982;5.928;2022-11-20T11:26:04;100923.03;;;4.02;68.17
66945;BME280;53853;51.982;5.928;2022-11-20T11:28:34;100916.72;;;4.05;68.46
66945;BME280;53853;51.982;5.928;2022-11-20T11:31:04;100918.69;;;4.14;68.17
66945;BME280;53853;51.982;5.928;2022-11-20T11:33:36;100907.81;;;4.18;68.10
66945;BME280;53853;51.982;5.928;2022-11-20T11:36:19;100898.13;;;4.19;68.05
66945;BME280;53853;51.982;5.928;2022-11-20T11:38:52;100905.19;;;4.31;67.87
66945;BME280;53853;51.982;5.928;2022-11-20T11:41:25;100900.88;;;4.30;67.82
66945;BME280;53853;51.982;5.928;2022-11-20T11:44:19;100894.28;;;4.36;67.55
66945;BME280;53853;51.982;5.928;2022-11-20T11:47:03;100882.06;;;4.35;67.44
66945;BME280;53853;51.982;5.928;2022-11-20T11:49:38;100878.13;;;4.41;67.67
66945;BME280;53853;51.982;5.928;2022-11-20T11:52:12;100872.13;;;4.39;67.67
66945;BME280;53853;51.982;5.928;2022-11-20T11:54:46;100867.59;;;4.41;67.64
66945;BME280;53853;51.982;5.928;2022-11-20T11:57:23;100857.13;;;4.39;67.65
66945;BME280;53853;51.982;5.928;2022-11-20T12:00:00;100863.59;;;4.35;67.58
66945;BME280;53853;51.982;5.928;2022-11-20T12:02:36;100852.94;;;4.37;67.93
66945;BME280;53853;51.982;5.928;2022-11-20T12:05:18;100849.97;;;4.41;67.95
66945;BME280;53853;51.982;5.928;2022-11-20T12:07:52;100858.50;;;4.45;68.18
66945;BME280;53853;51.982;5.928;2022-11-20T12:10:25;100840.97;;;4.44;68.34
66945;BME280;53853;51.982;5.928;2022-11-20T12:13:02;100840.03;;;4.45;68.37
66945;BME280;53853;51.982;5.928;2022-11-20T12:15:35;100849.31;;;4.50;68.19
66945;BME280;53853;51.982;5.928;2022-11-20T12:18:08;100847.41;;;4.52;68.33
66945;BME280;53853;51.982;5.928;2022-11-20T12:20:53;100846.00;;;4.60;67.86
66945;BME280;53853;51.982;5.928;2022-11-20T12:23:32;100831.97;;;4.59;67.99
66945;BME280;53853;51.982;5.928;2022-11-20T12:26:08;100825.63;;;4.62;67.91
66945;BME280;53853;51.982;5.928;2022-11-20T12:28:51;100816.84;;;4.61;68.59
66945;BME280;53853;51.982;5.928;2022-11-20T12:31:43;100814.66;;;4.55;68.79
66945;BME280;53853;51.982;5.928;2022-11-20T12:34:29;100811.28;;;4.53;69.39
66945;BME280;53853;51.982;5.928;2022-11-20T12:37:12;100809.38;;;4.55;69.59
66945;BME280;53853;51.982;5.928;2022-11-20T12:39:47;100803.28;;;4.54;69.93
66945;BME280;53853;51.982;5.928;2022-11-20T12:42:29;100801.25;;;4.58;70.92
66945;BME280;53853;51.982;5.928;2022-11-20T12:45:28;100784.72;;;4.67;70.44
66945;BME280;53853;51.982;5.928;2022-11-20T12:48:22;100784.88;;;4.77;70.33
66945;BME280;53853;51.982;5.928;2022-11-20T12:51:11;100784.09;;;4.88;69.76
66945;BME280;53853;51.982;5.928;2022-11-20T12:53:54;100773.09;;;4.94;69.45
66945;BME280;53853;51.982;5.928;2022-11-20T12:56:35;100775.72;;;4.94;69.97
66945;BME280;53853;51.982;5.928;2022-11-20T12:59:20;100777.06;;;5.00;69.88
66945;BME280;53853;51.982;5.928;2022-11-20T13:01:56;100776.63;;;5.06;69.77
66945;BME280;53853;51.982;5.928;2022-11-20T13:04:45;100774.69;;;5.08;69.67
66945;BME280;53853;51.982;5.928;2022-11-20T13:07:22;100758.25;;;5.04;69.96
66945;BME280;53853;51.982;5.928;2022-11-20T13:09:57;100767.84;;;5.05;69.97
66945;BME280;53853;51.982;5.928;2022-11-20T13:12:33;100771.44;;;5.04;70.41
66945;BME280;53853;51.982;5.928;2022-11-20T13:15:11;100771.59;;;5.14;69.96
66945;BME280;53853;51.982;5.928;2022-11-20T13:17:50;100761.97;;;5.13;70.26
66945;BME280;53853;51.982;5.928;2022-11-20T13:20:21;100760.66;;;5.07;70.67
66945;BME280;53853;51.982;5.928;2022-11-20T13:22:52;100740.94;;;5.00;70.61
66945;BME280;53853;51.982;5.928;2022-11-20T13:25:29;100735.50;;;4.90;71.46
66945;BME280;53853;51.982;5.928;2022-11-20T13:28:00;100722.88;;;4.83;72.06
66945;BME280;53853;51.982;5.928;2022-11-20T13:30:31;100707.16;;;4.81;72.02